Time;durP1;ratioP1;P1;durP2;ratioP2;P2;SDS_P1;SDS_P2;PMS_P1;PMS_P2;Temp;Humidity;BMP_temperature;BMP_pressure;BME280_temperature;BME280_humidity;BME280_pressure;Samples;Min_cycle;Max_cycle;Signal;HPM_P1;HPM_P2
2021/01/05 00:00:33;;;;;;;0.00;0.00;;;2.00;99.90;;;;;;5008779;28;20034;-90
2021/01/05 00:02:59;;;;;;;0.10;0.00;;;2.00;99.90;;;;;;5008435;28;20034;-90
2021/01/05 00:05:25;;;;;;;0.00;0.00;;;2.00;99.90;;;;;;4992383;28;20513;-90
2021/01/05 00:07:51;;;;;;;0.00;0.00;;;2.00;99.90;;;;;;4992589;28;20490;-90
2021/01/05 00:10:18;;;;;;;0.00;0.00;;;2.00;99.90;;;;;;4993065;28;20049;-90
2021/01/05 00:12:44;;;;;;;0.00;0.00;;;2.00;99.90;;;;;;4996331;28;20037;-90
2021/01/05 00:15:11;;;;;;;2.10;0.32;;;2.00;99.90;;;;;;4996246;28;20046;-90
2021/01/05 00:17:37;;;;;;;0.00;0.00;;;2.00;99.90;;;;;;4996289;28;20113;-90
2021/01/05 00:20:10;;;;;;;0.00;0.00;;;2.00;99.90;;;;;;4996109;28;20038;-91
2021/01/05 00:22:36;;;;;;;0.00;0.00;;;2.00;99.90;;;;;;4996156;28;20046;-90
2021/01/05 00:25:03;;;;;;;0.00;0.00;;;2.00;99.90;;;;;;4995870;28;20045;-90
2021/01/05 00:27:29;;;;;;;0.00;0.00;;;2.00;99.90;;;;;;4996251;28;20042;-89
2021/01/05 00:29:54;;;;;;;0.00;0.00;;;2.00;99.90;;;;;;4995950;28;20049;-90
2021/01/05 00:32:24;;;;;;;0.00;0.00;;;2.10;99.90;;;;;;4996007;28;20048;-90
2021/01/05 00:34:51;;;;;;;1.10;1.10;;;2.00;99.90;;;;;;4995892;28;20054;-90
2021/01/05 00:37:18;;;;;;;0.00;0.00;;;2.00;99.90;;;;;;4995858;28;20076;-90
2021/01/05 00:39:45;;;;;;;0.00;0.00;;;2.00;99.90;;;;;;4995727;28;20037;-91
2021/01/05 00:42:11;;;;;;;0.00;0.00;;;2.00;99.90;;;;;;4995773;28;20037;-90
2021/01/05 00:44:37;;;;;;;0.00;0.00;;;2.00;99.90;;;;;;4996162;28;20036;-90
2021/01/05 00:47:03;;;;;;;0.00;0.00;;;2.00;99.90;;;;;;4995671;28;20077;-90
2021/01/05 00:49:30;;;;;;;0.00;0.00;;;2.00;99.90;;;;;;4995544;28;20030;-90
2021/01/05 00:51:58;;;;;;;0.00;0.00;;;2.00;99.90;;;;;;4995579;28;20069;-90
2021/01/05 00:54:24;;;;;;;0.00;0.00;;;2.00;99.90;;;;;;4995622;28;20502;-89
2021/01/05 00:57:05;;;;;;;0.00;0.00;;;2.00;99.90;;;;;;5009827;28;20045;-90
2021/01/05 00:59:32;;;;;;;0.00;0.00;;;2.00;99.90;;;;;;5031334;28;20123;-90
2021/01/05 01:01:59;;;;;;;0.00;0.00;;;2.00;99.90;;;;;;5031297;28;20037;-90
2021/01/05 01:04:25;;;;;;;0.00;0.00;;;2.00;99.90;;;;;;5031232;28;20038;-90
2021/01/05 01:06:51;;;;;;;0.00;0.00;;;2.00;99.90;;;;;;5015136;28;20037;-90
2021/01/05 01:09:17;;;;;;;0.00;0.00;;;2.00;99.90;;;;;;5014883;28;20033;-90
2021/01/05 01:12:07;;;;;;;0.00;0.00;;;2.00;99.90;;;;;;5014832;28;20417;-91
2021/01/05 01:14:37;;;;;;;0.00;0.00;;;2.00;99.90;;;;;;5015479;28;20046;-90
2021/01/05 01:17:05;;;;;;;0.00;0.00;;;2.00;99.90;;;;;;5015152;28;20082;-90
2021/01/05 01:19:31;;;;;;;0.00;0.00;;;2.00;99.90;;;;;;5014886;28;20064;-89
2021/01/05 01:21:57;;;;;;;0.00;0.00;;;2.00;99.90;;;;;;5014638;28;20093;-90
2021/01/05 01:24:25;;;;;;;0.00;0.00;;;2.00;99.90;;;;;;5014991;28;20100;-90
2021/01/05 01:26:52;;;;;;;0.00;0.00;;;2.00;99.90;;;;;;5014591;28;20175;-90
2021/01/05 01:29:26;;;;;;;0.00;0.00;;;2.00;99.90;;;;;;5014782;28;20397;-91
2021/01/05 01:31:53;;;;;;;0.00;0.00;;;2.00;99.90;;;;;;5014490;28;20041;-90
2021/01/05 01:34:20;;;;;;;0.00;0.00;;;2.00;99.90;;;;;;5014499;28;20055;-91
2021/01/05 01:37:18;;;;;;;0.00;0.00;;;2.00;99.90;;;;;;5014858;28;20030;-90
2021/01/05 01:39:47;;;;;;;0.15;0.15;;;2.00;99.90;;;;;;5003996;28;20041;-90
2021/01/05 01:42:19;;;;;;;0.00;0.00;;;2.00;99.90;;;;;;5014873;28;20048;-90
2021/01/05 01:44:47;;;;;;;0.00;0.00;;;2.00;99.90;;;;;;5014608;28;20040;-90
2021/01/05 01:47:21;;;;;;;0.00;0.00;;;2.00;99.90;;;;;;5014372;28;20041;-90
2021/01/05 01:49:52;;;;;;;0.00;0.00;;;2.00;99.90;;;;;;5014432;28;20037;-90
2021/01/05 01:52:47;;;;;;;0.00;0.00;;;2.00;99.90;;;;;;5014452;28;20100;-90
2021/01/05 01:55:51;;;;;;;4.47;4.03;;;2.00;99.90;;;;;;5033508;28;20047;-90
2021/01/05 01:58:42;;;;;;;0.43;0.43;;;2.00;99.90;;;;;;5030132;28;20072;-91
2021/01/05 02:01:15;;;;;;;0.00;0.00;;;2.00;99.90;;;;;;5030371;28;20080;-90
2021/01/05 02:03:57;;;;;;;0.00;0.00;;;2.00;99.90;;;;;;5014145;28;20060;-90
2021/01/05 02:06:32;;;;;;;0.00;0.00;;;2.00;99.90;;;;;;5014175;28;20060;-90
2021/01/05 02:09:16;;;;;;;0.00;0.00;;;2.00;99.90;;;;;;5014072;28;20034;-90
2021/01/05 02:11:58;;;;;;;0.00;0.00;;;2.00;99.90;;;;;;5013727;28;20041;-90
2021/01/05 02:14:52;;;;;;;0.00;0.00;;;2.00;99.90;;;;;;5013818;28;20045;-90
2021/01/05 02:17:39;;;;;;;0.00;0.00;;;2.00;99.90;;;;;;5013728;28;20044;-90
2021/01/05 02:20:15;;;;;;;0.00;0.00;;;2.00;99.90;;;;;;5013823;28;20057;-90
2021/01/05 02:23:07;;;;;;;0.00;0.00;;;2.00;99.90;;;;;;5013306;28;20051;-90
2021/01/05 02:25:33;;;;;;;0.00;0.00;;;2.00;99.90;;;;;;5013408;28;20037;-90
2021/01/05 02:28:03;;;;;;;0.00;0.00;;;2.00;99.90;;;;;;5013285;28;20048;-90
2021/01/05 02:30:43;;;;;;;0.00;0.00;;;2.00;99.90;;;;;;5006337;28;20033;-90
2021/01/05 02:33:30;;;;;;;0.00;0.00;;;2.00;99.90;;;;;;4993212;28;20073;-89
2021/01/05 02:36:34;;;;;;;0.00;0.00;;;2.00;99.90;;;;;;5010198;28;20042;-89
2021/01/05 02:39:37;;;;;;;0.00;0.00;;;2.00;99.90;;;;;;5012605;28;20044;-90
2021/01/05 02:42:33;;;;;;;0.00;0.00;;;2.00;99.90;;;;;;5012649;28;20049;-90
2021/01/05 02:45:31;;;;;;;0.00;0.00;;;2.10;99.90;;;;;;5012670;28;20074;-90
2021/01/05 02:48:27;;;;;;;0.00;0.00;;;2.10;99.90;;;;;;5012330;28;20061;-90
2021/01/05 02:51:30;;;;;;;0.00;0.00;;;2.10;99.90;;;;;;5027269;28;20084;-90
2021/01/05 02:57:41;;;;;;;0.00;0.00;;;2.00;99.90;;;;;;4948117;29;20121;-88
2021/01/05 03:00:25;;;;;;;0.00;0.00;;;2.10;99.90;;;;;;4935511;29;20043;-89
2021/01/05 03:03:29;;;;;;;0.00;0.00;;;2.10;99.90;;;;;;4949144;29;20057;-89
2021/01/05 03:06:28;;;;;;;0.08;0.08;;;2.00;99.90;;;;;;4949065;29;20071;-89
2021/01/05 03:09:33;;;;;;;0.00;0.00;;;2.10;99.90;;;;;;4949042;29;20095;-89
2021/01/05 03:12:28;;;;;;;0.00;0.00;;;2.00;99.90;;;;;;4962349;29;20043;-89
2021/01/05 03:15:44;;;;;;;0.00;0.00;;;2.00;99.90;;;;;;4928464;29;20129;-89
2021/01/05 03:18:40;;;;;;;0.00;0.00;;;2.00;99.90;;;;;;4928122;29;20050;-89
2021/01/05 03:21:34;;;;;;;0.00;0.00;;;2.10;99.90;;;;;;4934947;29;20063;-88
2021/01/05 03:24:21;;;;;;;0.00;0.00;;;2.00;99.90;;;;;;4961758;29;20103;-89
2021/01/05 03:27:07;;;;;;;0.00;0.00;;;2.00;99.90;;;;;;4961811;29;20547;-89
2021/01/05 03:30:13;;;;;;;0.00;0.00;;;2.00;99.90;;;;;;4902023;29;20048;-89
2021/01/05 03:32:57;;;;;;;0.95;0.95;;;2.10;99.90;;;;;;4890267;29;20071;-90
2021/01/05 03:35:52;;;;;;;0.00;0.00;;;2.10;99.90;;;;;;4873801;29;20171;-89
2021/01/05 03:38:37;;;;;;;0.00;0.00;;;2.10;99.90;;;;;;4890165;29;20066;-88
2021/01/05 03:41:21;;;;;;;0.00;0.00;;;2.10;99.90;;;;;;4890544;29;20056;-90
2021/01/05 03:44:09;;;;;;;0.00;0.00;;;2.10;99.90;;;;;;4890044;29;20101;-90
2021/01/05 03:46:54;;;;;;;0.00;0.00;;;2.10;99.90;;;;;;4890164;29;20123;-89
2021/01/05 03:49:38;;;;;;;0.00;0.00;;;2.10;99.90;;;;;;4876787;29;20044;-90
2021/01/05 03:52:24;;;;;;;0.00;0.00;;;2.10;99.90;;;;;;4890048;29;20182;-89
2021/01/05 03:55:09;;;;;;;0.00;0.00;;;2.10;99.90;;;;;;4895628;29;20084;-90
2021/01/05 03:57:53;;;;;;;0.00;0.00;;;2.10;99.90;;;;;;4908514;29;20128;-90
2021/01/05 04:00:38;;;;;;;0.00;0.00;;;2.00;99.90;;;;;;4908305;29;20060;-91
2021/01/05 04:03:07;;;;;;;0.00;0.00;;;2.10;99.90;;;;;;4924163;29;20069;-91
2021/01/05 04:05:32;;;;;;;0.00;0.00;;;2.10;99.90;;;;;;4931282;29;20073;-91
2021/01/05 04:07:58;;;;;;;0.00;0.00;;;2.10;99.90;;;;;;4966677;29;20248;-91
2021/01/05 04:10:24;;;;;;;0.00;0.00;;;2.10;99.90;;;;;;4966514;29;20063;-90
2021/01/05 04:12:51;;;;;;;0.00;0.00;;;2.10;99.90;;;;;;4966212;29;20043;-91
2021/01/05 04:15:25;;;;;;;0.00;0.00;;;2.10;99.90;;;;;;4966354;29;20043;-91
2021/01/05 04:17:51;;;;;;;0.00;0.00;;;2.10;99.90;;;;;;4982410;28;20043;-90
2021/01/05 04:20:17;;;;;;;0.00;0.00;;;2.10;99.90;;;;;;4982617;28;20050;-91
2021/01/05 04:22:43;;;;;;;0.00;0.00;;;2.10;99.90;;;;;;4982479;28;20063;-91
2021/01/05 04:25:10;;;;;;;0.00;0.00;;;2.10;99.90;;;;;;4982454;28;20119;-90
2021/01/05 04:27:35;;;;;;;0.10;0.10;;;2.10;99.90;;;;;;4982512;28;20043;-90
2021/01/05 04:30:02;;;;;;;0.00;0.00;;;2.10;99.90;;;;;;4965986;29;20065;-90
2021/01/05 04:32:28;;;;;;;0.00;0.00;;;2.10;99.90;;;;;;4982458;28;20047;-90
2021/01/05 04:34:54;;;;;;;0.00;0.00;;;2.10;99.90;;;;;;4982574;28;20141;-90
2021/01/05 04:37:19;;;;;;;0.00;0.00;;;2.10;99.90;;;;;;4983324;28;20036;-91
2021/01/05 04:39:45;;;;;;;0.00;0.00;;;2.10;99.90;;;;;;4984120;28;20047;-91
2021/01/05 04:42:23;;;;;;;0.00;0.00;;;2.10;99.90;;;;;;4984108;28;20035;-90
2021/01/05 04:45:16;;;;;;;0.00;0.00;;;2.10;99.90;;;;;;4983616;28;20035;-90
2021/01/05 04:48:08;;;;;;;0.00;0.00;;;2.10;99.90;;;;;;4982432;28;20075;-91
2021/01/05 04:50:46;;;;;;;0.00;0.00;;;2.10;99.90;;;;;;4982290;28;20118;-90
2021/01/05 04:53:19;;;;;;;0.00;0.00;;;2.10;99.90;;;;;;4982264;28;20043;-90
2021/01/05 04:55:50;;;;;;;0.00;0.00;;;2.10;99.90;;;;;;5016609;23;20050;-89
2021/01/05 04:58:37;;;;;;;0.00;0.00;;;2.10;99.90;;;;;;5012510;28;20041;-89
2021/01/05 05:01:13;;;;;;;0.00;0.00;;;2.10;99.90;;;;;;4995726;28;20117;-89
2021/01/05 05:03:49;;;;;;;0.00;0.00;;;2.10;99.90;;;;;;5012327;28;20052;-89
2021/01/05 05:06:30;;;;;;;1.35;1.35;;;2.10;99.90;;;;;;5028662;28;20038;-90
2021/01/05 05:09:31;;;;;;;0.00;0.00;;;2.10;99.90;;;;;;4995858;28;20046;-89
2021/01/05 05:12:19;;;;;;;0.00;0.00;;;2.10;99.90;;;;;;5012544;28;20030;-89
2021/01/05 05:15:17;;;;;;;0.00;0.00;;;2.10;99.90;;;;;;4995774;28;20505;-89
2021/01/05 05:18:08;;;;;;;1.02;1.02;;;2.10;99.90;;;;;;5025536;28;20080;-90
2021/01/05 05:20:34;;;;;;;;;;;2.10;99.90;;;;;;4996004;28;20065;-90
2021/01/05 05:23:30;;;;;;;0.00;0.00;;;2.10;99.90;;;;;;4995903;28;19912;-91
2021/01/05 05:26:19;;;;;;;0.00;0.00;;;2.10;99.90;;;;;;4995472;28;20097;-90
2021/01/05 05:29:11;;;;;;;0.00;0.00;;;2.10;99.90;;;;;;5011571;28;20026;-91
2021/01/05 05:31:37;;;;;;;0.28;0.00;;;2.10;99.90;;;;;;5008757;28;20041;-90
2021/01/05 05:34:20;;;;;;;0.30;0.30;;;2.10;99.90;;;;;;5011273;28;20081;-88
2021/01/05 05:36:57;;;;;;;0.00;0.00;;;2.10;99.90;;;;;;5011327;28;20069;-88
2021/01/05 05:39:59;;;;;;;0.00;0.00;;;2.10;99.90;;;;;;4992684;28;20125;-88
2021/01/05 05:42:55;;;;;;;0.00;0.00;;;2.10;99.90;;;;;;4991652;28;20038;-88
2021/01/05 05:45:34;;;;;;;0.00;0.00;;;2.10;99.90;;;;;;4991655;28;20044;-88
2021/01/05 05:48:06;;;;;;;0.00;0.00;;;2.10;99.90;;;;;;5007731;28;20084;-88
2021/01/05 05:51:07;;;;;;;0.00;0.00;;;2.10;99.90;;;;;;4991305;28;20425;-88
2021/01/05 05:54:02;;;;;;;0.00;0.00;;;2.10;99.90;;;;;;4959814;28;20046;-88
2021/01/05 05:56:34;;;;;;;0.00;0.00;;;2.10;99.90;;;;;;4951382;29;20075;-88
2021/01/05 05:59:04;;;;;;;0.00;0.00;;;2.10;99.90;;;;;;4951587;29;20392;-87
2021/01/05 06:01:38;;;;;;;0.00;0.00;;;2.10;99.90;;;;;;4949260;28;20043;-88
2021/01/05 06:04:06;;;;;;;0.00;0.00;;;2.10;99.90;;;;;;4970790;28;20043;-88
2021/01/05 06:06:35;;;;;;;0.00;0.00;;;2.10;99.90;;;;;;4948751;28;20522;-87
2021/01/05 06:09:01;;;;;;;0.00;0.00;;;2.10;99.90;;;;;;4961901;28;20042;-88
2021/01/05 06:11:27;;;;;;;0.00;0.00;;;2.10;99.90;;;;;;4951673;28;20039;-89
2021/01/05 06:13:52;;;;;;;0.00;0.00;;;2.10;99.90;;;;;;4954155;28;20057;-89
2021/01/05 06:16:18;;;;;;;0.00;0.00;;;2.10;99.90;;;;;;4954408;28;20070;-88
2021/01/05 06:18:44;;;;;;;0.00;0.00;;;2.10;99.90;;;;;;4953560;28;20047;-89
2021/01/05 06:21:09;;;;;;;0.00;0.00;;;2.10;99.90;;;;;;4953832;28;20137;-88
2021/01/05 06:23:35;;;;;;;0.00;0.00;;;2.10;99.90;;;;;;4954091;28;20046;-88
2021/01/05 06:26:00;;;;;;;0.00;0.00;;;2.10;99.90;;;;;;4954195;28;20083;-88
2021/01/05 06:28:26;;;;;;;0.00;0.00;;;2.10;99.90;;;;;;4954296;28;20049;-88
2021/01/05 06:30:51;;;;;;;0.00;0.00;;;2.10;99.90;;;;;;4954142;28;20130;-89
2021/01/05 06:33:17;;;;;;;0.00;0.00;;;2.10;99.90;;;;;;4971050;28;20046;-88
2021/01/05 06:35:43;;;;;;;0.00;0.00;;;2.20;99.90;;;;;;5010124;28;20042;-88
2021/01/05 06:38:08;;;;;;;0.00;0.00;;;2.10;99.90;;;;;;5009836;28;20116;-88
2021/01/05 06:40:34;;;;;;;0.00;0.00;;;2.10;99.90;;;;;;5010264;28;20466;-88
2021/01/05 06:43:00;;;;;;;0.00;0.00;;;2.10;99.90;;;;;;5009955;28;20041;-89
2021/01/05 06:45:31;;;;;;;0.52;0.52;;;2.10;99.90;;;;;;5026282;28;20038;-88
2021/01/05 06:47:58;;;;;;;0.00;0.00;;;2.10;99.90;;;;;;4993496;28;20041;-88
2021/01/05 06:50:26;;;;;;;0.00;0.00;;;2.10;99.90;;;;;;4993276;28;20041;-88
2021/01/05 06:52:51;;;;;;;0.00;0.00;;;2.10;99.90;;;;;;4993390;28;20132;-88
2021/01/05 06:55:17;;;;;;;0.00;0.00;;;2.10;99.90;;;;;;4989766;28;20042;-88
2021/01/05 06:57:43;;;;;;;0.00;0.00;;;2.10;99.90;;;;;;4973942;28;20038;-88
2021/01/05 07:00:22;;;;;;;0.00;0.00;;;2.20;99.90;;;;;;4973432;28;20057;-88
2021/01/05 07:02:48;;;;;;;0.00;0.00;;;2.20;99.90;;;;;;4973654;28;20046;-89
2021/01/05 07:05:14;;;;;;;0.00;0.00;;;2.10;99.90;;;;;;4990041;28;20046;-88
2021/01/05 07:07:40;;;;;;;0.05;0.05;;;2.10;99.90;;;;;;4973630;28;20046;-90
2021/01/05 07:10:07;;;;;;;0.00;0.00;;;2.10;99.90;;;;;;4973645;28;20050;-88
2021/01/05 07:12:33;;;;;;;0.00;0.00;;;2.20;99.90;;;;;;4973594;28;20044;-88
2021/01/05 07:14:59;;;;;;;0.00;0.00;;;2.20;99.90;;;;;;4973526;28;20110;-89
2021/01/05 07:17:25;;;;;;;0.00;0.00;;;2.20;99.90;;;;;;4989859;28;20470;-88
2021/01/05 07:19:51;;;;;;;0.00;0.00;;;2.20;99.90;;;;;;4989012;28;20042;-88
2021/01/05 07:22:16;;;;;;;0.00;0.00;;;2.20;99.90;;;;;;4973331;28;20038;-88
2021/01/05 07:24:42;;;;;;;0.00;0.00;;;2.20;99.90;;;;;;4973271;28;20043;-89
2021/01/05 07:27:08;;;;;;;0.00;0.00;;;2.20;99.90;;;;;;4973443;28;20038;-88
2021/01/05 07:29:33;;;;;;;0.00;0.00;;;2.20;99.90;;;;;;4989397;28;20141;-88
2021/01/05 07:31:59;;;;;;;0.00;0.00;;;2.20;99.90;;;;;;4992227;28;20038;-88
2021/01/05 07:34:24;;;;;;;0.00;0.00;;;2.20;99.90;;;;;;4992644;28;20045;-88
2021/01/05 07:37:02;;;;;;;0.00;0.00;;;2.20;99.90;;;;;;4992654;28;20041;-88
2021/01/05 07:39:30;;;;;;;0.00;0.00;;;2.20;99.90;;;;;;4992606;28;20072;-88
2021/01/05 07:42:19;;;;;;;0.00;0.00;;;2.20;99.90;;;;;;4992613;28;20038;-88
2021/01/05 07:44:47;;;;;;;0.00;0.00;;;2.20;99.90;;;;;;4992527;28;20136;-89
2021/01/05 07:47:14;;;;;;;0.00;0.00;;;2.20;99.90;;;;;;5008850;28;20033;-89
2021/01/05 07:49:40;;;;;;;0.00;0.00;;;2.20;99.90;;;;;;4992489;28;20073;-89
2021/01/05 07:52:23;;;;;;;0.75;0.75;;;2.20;99.90;;;;;;5008425;28;20038;-88
2021/01/05 07:54:49;;;;;;;0.00;0.00;;;2.20;99.90;;;;;;4991925;28;20050;-89
2021/01/05 07:57:16;;;;;;;0.00;0.00;;;2.20;99.90;;;;;;5008697;28;20565;-88
2021/01/05 07:59:42;;;;;;;0.00;0.00;;;2.20;99.90;;;;;;5024989;28;20056;-88
2021/01/05 08:02:09;;;;;;;0.00;0.00;;;2.20;99.90;;;;;;4994382;28;20041;-90
2021/01/05 08:04:35;;;;;;;0.00;0.00;;;2.20;99.90;;;;;;5011362;28;20045;-89
2021/01/05 08:07:00;;;;;;;0.00;0.00;;;2.20;99.90;;;;;;5024389;28;20049;-89
2021/01/05 08:09:26;;;;;;;0.00;0.00;;;2.30;99.90;;;;;;5008391;28;20049;-89
2021/01/05 08:11:52;;;;;;;0.00;0.00;;;2.20;99.90;;;;;;5008345;28;20101;-89
2021/01/05 08:14:17;;;;;;;0.00;0.00;;;2.30;99.90;;;;;;4992022;28;20054;-89
2021/01/05 08:16:47;;;;;;;0.00;0.00;;;2.30;99.90;;;;;;5008741;28;20044;-89
2021/01/05 08:19:12;;;;;;;0.00;0.00;;;2.30;99.90;;;;;;4992219;28;20048;-89
2021/01/05 08:21:38;;;;;;;0.00;0.00;;;2.20;99.90;;;;;;5008362;28;20042;-88
2021/01/05 08:24:04;;;;;;;0.00;0.00;;;2.30;99.90;;;;;;5008508;28;20061;-88
2021/01/05 08:26:30;;;;;;;0.00;0.00;;;2.30;99.90;;;;;;5026059;28;20125;-89
2021/01/05 08:28:55;;;;;;;0.00;0.00;;;2.30;99.90;;;;;;5008572;28;20113;-89
2021/01/05 08:31:21;;;;;;;0.00;0.00;;;2.30;99.90;;;;;;5006516;28;20038;-89
2021/01/05 08:33:47;;;;;;;0.00;0.00;;;2.30;99.90;;;;;;5025289;28;20054;-88
2021/01/05 08:36:12;;;;;;;0.95;0.95;;;2.30;99.90;;;;;;5009106;28;20045;-89
2021/01/05 08:38:38;;;;;;;0.00;0.00;;;2.30;99.90;;;;;;5008860;28;20034;-88
2021/01/05 08:41:03;;;;;;;0.00;0.00;;;2.40;99.90;;;;;;5008922;28;20051;-90
2021/01/05 08:43:29;;;;;;;1.10;1.10;;;2.30;99.90;;;;;;5008997;28;20038;-89
2021/01/05 08:45:55;;;;;;;0.00;0.00;;;2.30;99.90;;;;;;5008970;28;20105;-89
2021/01/05 08:48:20;;;;;;;0.00;0.00;;;2.30;99.90;;;;;;5024781;28;20030;-89
2021/01/05 08:50:46;;;;;;;0.00;0.00;;;2.40;99.90;;;;;;5007734;28;20056;-88
2021/01/05 08:53:14;;;;;;;0.00;0.00;;;2.40;99.90;;;;;;5008132;28;20042;-89
2021/01/05 08:55:41;;;;;;;0.00;0.00;;;2.40;99.90;;;;;;5027481;28;20096;-89
2021/01/05 08:58:08;;;;;;;0.00;0.00;;;2.40;99.90;;;;;;5011328;28;20042;-89
2021/01/05 09:00:34;;;;;;;0.00;0.00;;;2.40;99.90;;;;;;5027802;28;20057;-89
2021/01/05 09:02:59;;;;;;;0.00;0.00;;;2.40;99.90;;;;;;5011075;28;20042;-89
2021/01/05 09:05:25;;;;;;;0.00;0.00;;;2.40;99.90;;;;;;5011241;28;20064;-89
2021/01/05 09:07:51;;;;;;;0.00;0.00;;;2.40;99.90;;;;;;5011078;28;20046;-89
2021/01/05 09:10:21;;;;;;;0.00;0.00;;;2.40;99.90;;;;;;5011076;28;20042;-89
2021/01/05 09:12:47;;;;;;;;;;;2.40;99.90;;;;;;5011618;28;20077;-89
2021/01/05 09:15:21;;;;;;;0.00;0.00;;;2.40;99.90;;;;;;5011106;28;19909;-89
2021/01/05 09:17:48;;;;;;;0.00;0.00;;;2.50;99.90;;;;;;5011036;28;20061;-89
2021/01/05 09:20:21;;;;;;;0.00;0.00;;;2.50;99.90;;;;;;5011118;28;20092;-88
2021/01/05 09:22:48;;;;;;;0.00;0.00;;;2.50;99.90;;;;;;5010932;28;20100;-88
2021/01/05 09:25:15;;;;;;;0.00;0.00;;;2.50;99.90;;;;;;5010705;28;20049;-89
2021/01/05 09:27:40;;;;;;;0.00;0.00;;;2.50;99.90;;;;;;5010756;28;20064;-88
2021/01/05 09:30:11;;;;;;;0.00;0.00;;;2.50;99.90;;;;;;5010880;28;20057;-89
2021/01/05 09:32:37;;;;;;;0.00;0.00;;;2.50;99.90;;;;;;4994661;28;20116;-88
2021/01/05 09:35:04;;;;;;;0.00;0.00;;;2.50;99.90;;;;;;4994884;28;20050;-89
2021/01/05 09:37:30;;;;;;;0.00;0.00;;;2.50;99.90;;;;;;4995422;28;20077;-89
2021/01/05 09:39:56;;;;;;;0.00;0.00;;;2.50;99.90;;;;;;5010694;28;20049;-88
2021/01/05 09:42:21;;;;;;;0.00;0.00;;;2.50;99.90;;;;;;5026831;28;20034;-89
2021/01/05 09:44:48;;;;;;;0.00;0.00;;;2.50;99.90;;;;;;5010595;28;20038;-89
2021/01/05 09:47:19;;;;;;;0.00;0.00;;;2.50;99.90;;;;;;4994192;28;20065;-89
2021/01/05 09:49:46;;;;;;;0.00;0.00;;;2.50;99.90;;;;;;5010719;28;20084;-88
2021/01/05 09:52:12;;;;;;;0.00;0.00;;;2.50;99.90;;;;;;4993858;28;20482;-89
2021/01/05 09:54:38;;;;;;;0.00;0.00;;;2.50;99.90;;;;;;5007850;28;20053;-89
2021/01/05 09:57:04;;;;;;;0.00;0.00;;;2.60;99.90;;;;;;5009949;28;20050;-88
2021/01/05 09:59:30;;;;;;;0.00;0.00;;;2.60;99.90;;;;;;5026546;28;20045;-87
2021/01/05 10:02:01;;;;;;;0.00;0.00;;;2.60;99.90;;;;;;5009973;28;20073;-87
2021/01/05 10:04:26;;;;;;;;;;;2.60;99.90;;;;;;5010488;28;20049;-86
2021/01/05 10:06:52;;;;;;;0.00;0.00;;;2.50;99.90;;;;;;5010079;28;19909;-87
2021/01/05 10:09:18;;;;;;;0.00;0.00;;;2.60;99.90;;;;;;5009631;28;20085;-86
2021/01/05 10:11:47;;;;;;;0.00;0.00;;;2.50;99.90;;;;;;5010166;28;20046;-87
2021/01/05 10:14:15;;;;;;;0.00;0.00;;;2.50;99.90;;;;;;5010060;28;20053;-89
2021/01/05 10:16:41;;;;;;;0.00;0.00;;;2.60;99.90;;;;;;5010079;28;20045;-87
2021/01/05 10:19:07;;;;;;;0.00;0.00;;;2.60;99.90;;;;;;5009719;28;20391;-86
2021/01/05 10:21:35;;;;;;;0.00;0.00;;;2.60;99.90;;;;;;5026101;28;20048;-86
2021/01/05 10:24:01;;;;;;;1.17;1.17;;;2.60;99.90;;;;;;5009147;28;20056;-87
2021/01/05 10:26:27;;;;;;;0.00;0.00;;;2.60;99.90;;;;;;5009680;28;20069;-86
2021/01/05 10:28:52;;;;;;;0.00;0.00;;;2.60;99.90;;;;;;5009709;28;20038;-87
2021/01/05 10:31:18;;;;;;;0.00;0.00;;;2.60;99.90;;;;;;5009334;28;20073;-86
2021/01/05 10:33:47;;;;;;;0.00;0.00;;;2.60;99.90;;;;;;4993365;28;20505;-88
2021/01/05 10:36:17;;;;;;;0.00;0.00;;;2.60;99.90;;;;;;4993517;28;20038;-87
2021/01/05 10:38:47;;;;;;;0.00;0.00;;;2.60;99.90;;;;;;4992684;28;20034;-87
2021/01/05 10:41:14;;;;;;;0.00;0.00;;;2.60;99.90;;;;;;5009272;28;20038;-87
2021/01/05 10:43:40;;;;;;;0.00;0.00;;;2.60;99.90;;;;;;5009350;28;20066;-86
2021/01/05 10:46:05;;;;;;;0.00;0.00;;;2.60;99.90;;;;;;4993151;28;20041;-87
2021/01/05 10:48:31;;;;;;;0.00;0.00;;;2.60;99.90;;;;;;5009196;28;20052;-87
2021/01/05 10:50:56;;;;;;;0.00;0.00;;;2.60;99.90;;;;;;4993050;28;20041;-86
2021/01/05 10:53:24;;;;;;;0.00;0.00;;;2.60;99.90;;;;;;4992085;28;20483;-87
2021/01/05 10:55:50;;;;;;;0.00;0.00;;;2.60;99.90;;;;;;5008473;28;20053;-87
2021/01/05 10:58:15;;;;;;;0.00;0.00;;;2.60;99.90;;;;;;5008929;28;20046;-86
2021/01/05 11:00:41;;;;;;;0.00;0.00;;;2.60;99.90;;;;;;5008644;28;20057;-86
2021/01/05 11:03:06;;;;;;;0.00;0.00;;;2.60;99.90;;;;;;5025311;28;20060;-87
2021/01/05 11:05:32;;;;;;;0.20;0.20;;;2.60;99.90;;;;;;5009059;28;20042;-87
2021/01/05 11:07:58;;;;;;;0.00;0.00;;;2.60;99.90;;;;;;5008602;28;20046;-86
2021/01/05 11:10:23;;;;;;;0.00;0.00;;;2.70;99.90;;;;;;5008784;28;20038;-88
2021/01/05 11:12:49;;;;;;;0.00;0.00;;;2.60;99.90;;;;;;5008580;28;20092;-88
2021/01/05 11:15:16;;;;;;;0.00;0.00;;;2.60;99.90;;;;;;5008620;28;20057;-87
2021/01/05 11:17:45;;;;;;;0.00;0.00;;;2.70;99.90;;;;;;5008547;28;20045;-86
2021/01/05 11:20:13;;;;;;;0.00;0.00;;;2.60;99.90;;;;;;5008733;28;20046;-86
2021/01/05 11:22:39;;;;;;;0.00;0.00;;;2.70;99.90;;;;;;5008514;28;20084;-88
2021/01/05 11:25:05;;;;;;;0.15;0.15;;;2.60;99.90;;;;;;5024611;28;20034;-87
2021/01/05 11:27:30;;;;;;;0.00;0.00;;;2.60;99.90;;;;;;5024615;28;20049;-86
2021/01/05 11:29:56;;;;;;;0.00;0.00;;;2.60;99.90;;;;;;5008387;28;20038;-86
2021/01/05 11:32:23;;;;;;;0.00;0.00;;;2.70;99.90;;;;;;4992020;28;20076;-87
2021/01/05 11:34:49;;;;;;;0.00;0.00;;;2.70;99.90;;;;;;5008121;28;20049;-87
2021/01/05 11:37:17;;;;;;;0.00;0.00;;;2.70;99.90;;;;;;5024639;28;20449;-86
2021/01/05 11:39:46;;;;;;;0.00;0.00;;;2.70;99.90;;;;;;4991709;28;20038;-86
2021/01/05 11:42:13;;;;;;;0.50;0.50;;;2.70;99.90;;;;;;4991898;28;20038;-86
2021/01/05 11:44:39;;;;;;;0.00;0.00;;;2.70;99.90;;;;;;5008152;28;20042;-87
2021/01/05 11:47:06;;;;;;;0.00;0.00;;;2.80;99.90;;;;;;5025695;28;20037;-87
2021/01/05 11:49:31;;;;;;;0.00;0.00;;;2.80;99.90;;;;;;4991861;28;20038;-87
2021/01/05 11:51:57;;;;;;;0.00;0.00;;;2.80;99.90;;;;;;4992014;28;20080;-87
2021/01/05 11:54:24;;;;;;;0.00;0.00;;;2.70;99.90;;;;;;4991129;28;20053;-87
2021/01/05 11:56:57;;;;;;;0.00;0.00;;;2.80;99.90;;;;;;4991768;28;20073;-86
2021/01/05 11:59:23;;;;;;;0.00;0.00;;;2.80;99.90;;;;;;5005726;28;20066;-87
2021/01/05 12:01:49;;;;;;;0.00;0.00;;;2.80;99.90;;;;;;5008035;28;20344;-87
2021/01/05 12:04:15;;;;;;;0.00;0.00;;;2.80;99.90;;;;;;4991914;28;20034;-88
2021/01/05 12:06:46;;;;;;;0.00;0.00;;;2.80;99.90;;;;;;5007280;28;20037;-86
2021/01/05 12:09:12;;;;;;;0.00;0.00;;;2.80;99.90;;;;;;5024029;28;20042;-86
2021/01/05 12:11:38;;;;;;;0.00;0.00;;;2.80;99.90;;;;;;5008090;28;20098;-86
2021/01/05 12:14:05;;;;;;;0.00;0.00;;;2.80;99.90;;;;;;5007578;28;20061;-86
2021/01/05 12:16:40;;;;;;;0.00;0.00;;;2.80;99.90;;;;;;5024435;28;20502;-85
2021/01/05 12:19:11;;;;;;;0.00;0.00;;;2.80;99.90;;;;;;5024271;28;20046;-88
2021/01/05 12:21:38;;;;;;;0.00;0.00;;;2.80;99.90;;;;;;5007707;28;20061;-89
2021/01/05 12:24:11;;;;;;;0.00;0.00;;;2.80;99.90;;;;;;5024088;28;20073;-87
2021/01/05 12:26:38;;;;;;;0.88;0.00;;;2.80;99.90;;;;;;5024011;28;20050;-86
2021/01/05 12:29:13;;;;;;;0.00;0.00;;;2.80;99.90;;;;;;5023661;28;20050;-85
2021/01/05 12:31:45;;;;;;;0.00;0.00;;;2.80;99.90;;;;;;5007580;28;20223;-86
2021/01/05 12:34:13;;;;;;;0.00;0.00;;;2.80;99.90;;;;;;4991632;28;20330;-86
2021/01/05 12:36:41;;;;;;;0.00;0.00;;;2.80;99.90;;;;;;4991519;28;20038;-86
2021/01/05 12:39:12;;;;;;;0.00;0.00;;;2.90;99.90;;;;;;4991481;28;20042;-92
2021/01/05 12:41:39;;;;;;;0.00;0.00;;;2.90;99.90;;;;;;4991041;28;20038;-89
2021/01/05 12:44:08;;;;;;;0.00;0.00;;;2.90;99.90;;;;;;4990979;28;20065;-87
2021/01/05 12:46:37;;;;;;;0.00;0.00;;;2.90;99.90;;;;;;4991719;28;20122;-87
2021/01/05 12:49:04;;;;;;;0.00;0.00;;;2.90;99.90;;;;;;5007639;28;20102;-85
2021/01/05 12:51:33;;;;;;;0.00;0.00;;;2.90;99.90;;;;;;5007667;28;20037;-87
2021/01/05 12:53:58;;;;;;;0.00;0.00;;;2.90;99.90;;;;;;5007202;28;20050;-86
2021/01/05 12:56:25;;;;;;;0.00;0.00;;;2.90;99.90;;;;;;4990738;28;20049;-86
2021/01/05 12:58:51;;;;;;;0.00;0.00;;;2.90;99.90;;;;;;5007327;28;20038;-86
2021/01/05 13:01:18;;;;;;;0.00;0.00;;;3.00;99.90;;;;;;5024166;28;20048;-85
2021/01/05 13:03:44;;;;;;;0.00;0.00;;;3.00;99.90;;;;;;5007726;28;20041;-87
2021/01/05 13:06:10;;;;;;;0.00;0.00;;;3.00;99.90;;;;;;5007998;28;20061;-86
2021/01/05 13:08:37;;;;;;;0.00;0.00;;;3.00;99.90;;;;;;5007490;28;20570;-86
2021/01/05 13:11:11;;;;;;;0.00;0.00;;;3.00;99.90;;;;;;5007425;28;20085;-87
2021/01/05 13:13:38;;;;;;;0.00;0.00;;;3.10;99.90;;;;;;5023765;28;20056;-85
2021/01/05 13:16:06;;;;;;;0.15;0.10;;;3.00;99.90;;;;;;5007621;28;20041;-86
2021/01/05 13:18:31;;;;;;;0.00;0.00;;;3.00;99.90;;;;;;5010345;28;20042;-86
2021/01/05 13:20:57;;;;;;;0.00;0.00;;;3.00;99.90;;;;;;5011058;28;20410;-86
2021/01/05 13:23:22;;;;;;;0.00;0.00;;;3.00;99.90;;;;;;4994710;28;20050;-85
2021/01/05 13:25:48;;;;;;;0.00;0.00;;;3.00;99.90;;;;;;5010784;28;20038;-87